Terminal Aerodrome Forecast
Issued by NWS Boston, MA

Home | Current Version | Previous Version | Text Only | Print | Product List | Glossary On
Versions: 1 2 3 4 5 6 7 8 9 10 11 12 13 14 15 16 17 18 19 20 21 22 23 24 25 26 27 28 29 30 31 32 33 34 35 36
000
FTUS41 KBOX 011407 AAA
TAFORH
TAF AMD
KORH 011407Z 0114/0212 16009KT 1/2SM FG OVC002
     FM011500 17010KT 4SM BR OVC003
     FM011700 20007KT P6SM VCSH OVC050
     FM012000 20007KT 6SM -SHRA BKN090
     FM012300 23005KT P6SM SCT250
     FM020300 25005KT P6SM BKN060
     FM020500 27006KT P6SM SCT250=

USA.gov is the U.S. government's official web portal to all federal, state and local government web resources and services.